createdAt,value
2022-09-03T00:01:58.029Z,100976.22
2022-09-03T00:04:38.487Z,100979.75
2022-09-03T00:07:16.804Z,100982.56
2022-09-03T00:09:52.701Z,100984.28
2022-09-03T00:12:26.701Z,100980.97
2022-09-03T00:15:06.698Z,100980.13
2022-09-03T00:17:44.296Z,100967.84
2022-09-03T00:20:20.253Z,100979.28
2022-09-03T00:22:52.786Z,100978.78
2022-09-03T00:25:28.010Z,100970.84
2022-09-03T00:28:00.986Z,100965.59
2022-09-03T00:30:37.623Z,100967.50
2022-09-03T00:33:12.262Z,100811.47
2022-09-03T00:35:49.743Z,100860.44
2022-09-03T00:38:21.095Z,100970.69
2022-09-03T00:41:09.071Z,100970.50
2022-09-03T00:44:04.204Z,100969.75
2022-09-03T00:46:50.656Z,100969.66
2022-09-03T00:49:35.541Z,100967.13
2022-09-03T00:52:19.124Z,100969.97
2022-09-03T00:55:13.778Z,100975.41
2022-09-03T00:58:05.702Z,100867.06
2022-09-03T01:00:34.802Z,100964.91
2022-09-03T01:03:10.561Z,100930.94
2022-09-03T01:06:09.300Z,100943.16
2022-09-03T01:09:12.378Z,100964.19
2022-09-03T01:11:59.543Z,100760.59
2022-09-03T01:14:52.727Z,100959.59
2022-09-03T01:17:40.494Z,100961.63
2022-09-03T01:20:39.264Z,100843.78
2022-09-03T01:23:45.269Z,100956.50
2022-09-03T01:26:52.892Z,100823.66
2022-09-03T01:29:32.290Z,100959.03
2022-09-03T01:32:11.341Z,100953.88
2022-09-03T01:34:54.183Z,100955.88
2022-09-03T01:37:38.995Z,100809.94
2022-09-03T01:40:22.619Z,100931.31
2022-09-03T01:43:14.430Z,100956.84
2022-09-03T01:45:55.251Z,100780.59
2022-09-03T01:48:47.834Z,100935.28
2022-09-03T01:51:23.690Z,100959.00
2022-09-03T01:54:36.269Z,100936.44
2022-09-03T01:57:35.214Z,100956.44
2022-09-03T02:00:11.816Z,100898.09
2022-09-03T02:02:43.532Z,100953.97
2022-09-03T02:05:17.252Z,100900.63
2022-09-03T02:07:51.909Z,100812.47
2022-09-03T02:10:23.761Z,100954.97
2022-09-03T02:12:57.962Z,100948.84
2022-09-03T02:15:31.484Z,100949.88
2022-09-03T02:18:07.469Z,100912.25
2022-09-03T02:20:39.463Z,100949.00
2022-09-03T02:23:08.598Z,100950.75
2022-09-03T02:25:42.745Z,100719.28
2022-09-03T02:28:27.405Z,100908.03
2022-09-03T02:30:57.149Z,100953.44
2022-09-03T02:33:28.155Z,100954.31
2022-09-03T02:36:01.867Z,100949.03
2022-09-03T02:38:30.861Z,100954.50
2022-09-03T02:41:05.434Z,100952.88
2022-09-03T02:43:43.505Z,100916.91
2022-09-03T02:46:22.806Z,100873.22
2022-09-03T02:48:53.243Z,100949.16
2022-09-03T02:51:22.439Z,100951.94
2022-09-03T02:53:51.346Z,100940.56
2022-09-03T02:56:20.305Z,100944.16
2022-09-03T02:58:49.280Z,100943.28
2022-09-03T03:01:25.475Z,100945.16
2022-09-03T03:03:57.786Z,100943.41
2022-09-03T03:06:30.887Z,100946.16
2022-09-03T03:09:10.507Z,100946.19
2022-09-03T03:11:40.256Z,100949.72
2022-09-03T03:14:09.187Z,100952.44
2022-09-03T03:16:38.194Z,100954.19
2022-09-03T03:19:11.024Z,100961.28
2022-09-03T03:21:40.322Z,100965.69
2022-09-03T03:24:09.804Z,100965.59
2022-09-03T03:26:38.814Z,100972.66
2022-09-03T03:29:07.720Z,100960.13
2022-09-03T03:31:39.083Z,100963.56
2022-09-03T03:34:09.414Z,100965.28
2022-09-03T03:36:39.078Z,100961.75
2022-09-03T03:39:07.902Z,100958.22
2022-09-03T03:41:40.411Z,100964.44
2022-09-03T03:44:10.301Z,100960.88
2022-09-03T03:46:42.336Z,100960.88
2022-09-03T03:49:12.634Z,100954.72
2022-09-03T03:51:41.910Z,100959.25
2022-09-03T03:54:10.790Z,100960.38
2022-09-03T03:56:41.868Z,100959.53
2022-09-03T03:59:10.987Z,100958.72
2022-09-03T04:01:39.900Z,100959.63
2022-09-03T04:04:08.963Z,100949.06
2022-09-03T04:06:40.289Z,100954.22
2022-09-03T04:09:11.236Z,100953.47
2022-09-03T04:11:40.226Z,100950.06
2022-09-03T04:14:09.052Z,100962.41
2022-09-03T04:16:38.115Z,100961.56
2022-09-03T04:19:07.376Z,100963.16
2022-09-03T04:21:41.099Z,100959.59
2022-09-03T04:24:10.120Z,100962.94
2022-09-03T04:26:39.807Z,100967.16
2022-09-03T04:29:10.917Z,100961.75
2022-09-03T04:32:00.652Z,100964.31
2022-09-03T04:34:29.762Z,100966.81
2022-09-03T04:37:00.166Z,100969.38
2022-09-03T04:39:29.220Z,100956.81
2022-09-03T04:42:04.222Z,100959.38
2022-09-03T04:44:33.214Z,100959.25
2022-09-03T04:47:39.114Z,100961.78
2022-09-03T04:50:09.168Z,100963.38
2022-09-03T04:52:57.650Z,100963.25
2022-09-03T04:55:29.429Z,100960.44
2022-09-03T04:58:04.088Z,100965.56
2022-09-03T05:00:37.236Z,100972.34
2022-09-03T05:03:08.877Z,100975.66
2022-09-03T05:05:53.951Z,100972.75
2022-09-03T05:08:25.618Z,100952.44
2022-09-03T05:11:01.317Z,100973.19
2022-09-03T05:13:34.651Z,100978.31
2022-09-03T05:16:06.794Z,100956.19
2022-09-03T05:18:36.791Z,100980.50
2022-09-03T05:21:08.897Z,100958.41
2022-09-03T05:23:41.169Z,100976.50
2022-09-03T05:26:20.307Z,100975.47
2022-09-03T05:28:56.059Z,100981.53
2022-09-03T05:31:32.620Z,100892.34
2022-09-03T05:34:10.233Z,100953.06
2022-09-03T05:36:50.195Z,100987.88
2022-09-03T05:39:20.552Z,100992.63
2022-09-03T05:41:55.240Z,100985.09
2022-09-03T05:44:24.208Z,100983.91
2022-09-03T05:46:53.651Z,100995.22
2022-09-03T05:49:22.589Z,100992.38
2022-09-03T05:51:51.720Z,100986.31
2022-09-03T05:54:22.178Z,100994.41
2022-09-03T05:57:17.488Z,100990.06
2022-09-03T05:59:51.325Z,100996.22
2022-09-03T06:02:20.491Z,100987.41
2022-09-03T06:04:53.919Z,100989.09
2022-09-03T06:07:29.798Z,100987.31
2022-09-03T06:10:00.431Z,100988.19
2022-09-03T06:12:31.821Z,100986.31
2022-09-03T06:15:02.064Z,100995.19
2022-09-03T06:17:41.486Z,100997.81
2022-09-03T06:20:12.456Z,100997.63
2022-09-03T06:22:49.397Z,100996.78
2022-09-03T06:25:22.796Z,100994.22
2022-09-03T06:27:51.916Z,100990.78
2022-09-03T06:30:25.412Z,100991.56
2022-09-03T06:33:11.999Z,100997.59
2022-09-03T06:35:44.231Z,100995.81
2022-09-03T06:38:15.593Z,100999.38
2022-09-03T06:40:50.687Z,100997.59
2022-09-03T06:43:42.194Z,100997.47
2022-09-03T06:46:14.226Z,100994.88
2022-09-03T06:48:45.529Z,100999.94
2022-09-03T06:51:18.290Z,100986.03
2022-09-03T06:53:49.910Z,100996.28
2022-09-03T06:56:26.480Z,101007.56
2022-09-03T06:59:00.743Z,100995.25
2022-09-03T07:01:32.541Z,100956.75
2022-09-03T07:04:06.489Z,100849.31
2022-09-03T07:06:43.195Z,101005.28
2022-09-03T07:09:15.004Z,101010.53
2022-09-03T07:11:48.786Z,101008.50
2022-09-03T07:14:19.437Z,101011.78
2022-09-03T07:16:49.344Z,101009.97
2022-09-03T07:19:18.636Z,101010.50
2022-09-03T07:21:50.444Z,101007.75
2022-09-03T07:24:22.514Z,101011.22
2022-09-03T07:26:53.093Z,101014.56
2022-09-03T07:29:22.166Z,101019.00
2022-09-03T07:31:57.015Z,100991.69
2022-09-03T07:34:31.253Z,100978.25
2022-09-03T07:37:02.223Z,101002.31
2022-09-03T07:39:31.486Z,100994.66
2022-09-03T07:42:02.393Z,101004.13
2022-09-03T07:44:31.330Z,101003.94
2022-09-03T07:47:00.846Z,100995.72
2022-09-03T07:49:29.819Z,101000.13
2022-09-03T07:51:58.441Z,100996.22
2022-09-03T07:54:28.128Z,101007.44
2022-09-03T07:56:56.915Z,101001.84
2022-09-03T07:59:28.062Z,101000.66
2022-09-03T08:01:57.815Z,101001.25
2022-09-03T08:04:26.663Z,100999.50
2022-09-03T08:06:57.095Z,101000.19
2022-09-03T08:09:25.823Z,100966.88
2022-09-03T08:11:54.642Z,101002.22
2022-09-03T08:14:23.606Z,100999.16
2022-09-03T08:16:53.970Z,101001.31
2022-09-03T08:19:23.377Z,101005.63
2022-09-03T08:21:52.275Z,100999.28
2022-09-03T08:24:24.743Z,100946.69
2022-09-03T08:26:53.608Z,100995.03
2022-09-03T08:29:24.450Z,100999.13
2022-09-03T08:31:54.972Z,100987.19
2022-09-03T08:34:24.494Z,100987.13
2022-09-03T08:36:54.397Z,100989.91
2022-09-03T08:39:23.413Z,100992.13
2022-09-03T08:42:29.966Z,100979.03
2022-09-03T08:45:05.289Z,100904.75
2022-09-03T08:47:50.592Z,100995.78
2022-09-03T08:50:31.812Z,100979.72
2022-09-03T08:53:09.830Z,100985.00
2022-09-03T08:55:45.030Z,100934.16
2022-09-03T08:58:22.787Z,100965.84
2022-09-03T09:01:02.743Z,100962.56
2022-09-03T09:03:57.525Z,100793.81
2022-09-03T09:06:37.313Z,100943.81
2022-09-03T09:09:24.679Z,100960.31
2022-09-03T09:12:10.714Z,100971.81
2022-09-03T09:15:13.302Z,100971.34
2022-09-03T09:17:58.164Z,100984.50
2022-09-03T09:20:41.773Z,100968.25
2022-09-03T09:23:16.797Z,100968.38
2022-09-03T09:25:51.758Z,100975.72
2022-09-03T09:28:27.573Z,100730.34
2022-09-03T09:30:59.162Z,100973.41
2022-09-03T09:33:28.696Z,100976.75
2022-09-03T09:36:03.214Z,100774.69
2022-09-03T09:38:39.489Z,100963.56
2022-09-03T09:41:13.770Z,100974.63
2022-09-03T09:43:43.692Z,100953.44
2022-09-03T09:46:18.193Z,100940.66
2022-09-03T09:48:52.936Z,100955.88
2022-09-03T09:51:25.842Z,100951.88
2022-09-03T09:54:05.536Z,100950.75
2022-09-03T09:56:34.301Z,100923.56
2022-09-03T09:59:08.607Z,100947.06
2022-09-03T10:01:41.244Z,100947.69
2022-09-03T10:04:23.416Z,100837.97
2022-09-03T10:07:01.406Z,100952.94
2022-09-03T10:09:34.842Z,100877.84
2022-09-03T10:12:19.977Z,100939.06
2022-09-03T10:14:58.723Z,100941.81
2022-09-03T10:17:49.804Z,100846.06
2022-09-03T10:20:38.268Z,100779.88
2022-09-03T10:23:23.085Z,100936.88
2022-09-03T10:26:07.584Z,100923.19
2022-09-03T10:28:41.668Z,100927.34
2022-09-03T10:31:40.876Z,100699.13
2022-09-03T10:34:28.424Z,100924.47
2022-09-03T10:37:20.071Z,100722.91
2022-09-03T10:40:25.106Z,100763.13
2022-09-03T10:43:19.808Z,100839.41
2022-09-03T10:46:06.497Z,100748.00
2022-09-03T10:49:02.781Z,100882.66
2022-09-03T10:51:37.972Z,100872.09
2022-09-03T10:54:43.617Z,100914.75
2022-09-03T10:57:31.376Z,100875.63
2022-09-03T11:00:09.934Z,100911.19
2022-09-03T11:03:25.754Z,100897.03
2022-09-03T11:06:06.416Z,100855.59
2022-09-03T11:08:44.892Z,100835.06
2022-09-03T11:11:21.748Z,100728.34
2022-09-03T11:14:00.057Z,100869.84
2022-09-03T11:16:35.818Z,100888.00
2022-09-03T11:19:14.545Z,100883.03
2022-09-03T11:21:49.223Z,100880.78
2022-09-03T11:24:24.568Z,100706.44
2022-09-03T11:27:10.722Z,100805.19
2022-09-03T11:29:54.631Z,100784.72
2022-09-03T11:32:34.116Z,100856.41
2022-09-03T11:35:03.180Z,100742.69
2022-09-03T11:37:32.749Z,100851.75
2022-09-03T11:40:11.952Z,100818.03
2022-09-03T11:42:43.620Z,100835.03
2022-09-03T11:45:25.964Z,100866.25
2022-09-03T11:47:55.576Z,100878.88
2022-09-03T11:50:30.222Z,100613.19
2022-09-03T11:53:11.718Z,100644.66
2022-09-03T11:55:58.694Z,100866.84
2022-09-03T11:58:32.864Z,100813.94
2022-09-03T12:01:10.616Z,100839.75
2022-09-03T12:03:53.151Z,100713.41
2022-09-03T12:06:49.186Z,100673.72
2022-09-03T12:10:03.557Z,100837.97
2022-09-03T12:13:05.967Z,100851.47
2022-09-03T12:16:10.834Z,100588.69
2022-09-03T12:19:02.877Z,100541.72
2022-09-03T12:21:41.155Z,100659.19
2022-09-03T12:24:18.234Z,100851.78
2022-09-03T12:27:01.039Z,100842.28
2022-09-03T12:29:43.452Z,100838.69
2022-09-03T12:32:18.918Z,100586.34
2022-09-03T12:34:59.619Z,100838.41
2022-09-03T12:40:29.516Z,100843.03
2022-09-03T12:46:33.574Z,100835.31
2022-09-03T12:49:33.916Z,100841.06
2022-09-03T12:52:33.306Z,100820.00
2022-09-03T12:55:16.896Z,100641.50
2022-09-03T12:58:04.631Z,100510.78
2022-09-03T13:00:46.517Z,100543.91
2022-09-03T13:03:25.771Z,100561.44
2022-09-03T13:06:18.209Z,100717.84
2022-09-03T13:08:56.981Z,100524.84
2022-09-03T13:11:37.491Z,100803.47
2022-09-03T13:14:16.533Z,100803.78
2022-09-03T13:17:23.301Z,100561.31
2022-09-03T13:20:23.085Z,100685.69
2022-09-03T13:23:26.388Z,100499.66
2022-09-03T13:26:24.268Z,100702.69
2022-09-03T13:29:21.943Z,100802.22
2022-09-03T13:31:56.435Z,100796.56
2022-09-03T13:34:40.453Z,100793.69
2022-09-03T13:37:26.417Z,100805.63
2022-09-03T13:40:04.645Z,100809.94
2022-09-03T13:42:40.738Z,100811.97
2022-09-03T13:45:23.683Z,100816.78
2022-09-03T13:48:21.573Z,100793.25
2022-09-03T13:51:01.193Z,100790.28
2022-09-03T13:54:00.394Z,100810.69
2022-09-03T13:56:53.434Z,100773.41
2022-09-03T13:59:36.499Z,100802.28
2022-09-03T14:02:38.082Z,100796.72
2022-09-03T14:08:36.863Z,100785.75
2022-09-03T14:11:58.684Z,100673.19
2022-09-03T14:15:16.300Z,100571.13
2022-09-03T14:18:25.740Z,100700.22
2022-09-03T14:21:17.565Z,100779.31
2022-09-03T14:23:57.699Z,100777.06
2022-09-03T14:26:40.002Z,100741.69
2022-09-03T14:29:23.715Z,100530.97
2022-09-03T14:32:39.273Z,100699.56
2022-09-03T14:35:46.491Z,100637.06
2022-09-03T14:38:56.528Z,100539.38
2022-09-03T14:41:49.982Z,100757.50
2022-09-03T14:44:38.999Z,100767.94
2022-09-03T14:48:48.390Z,100559.97
2022-09-03T14:51:19.969Z,100764.47
2022-09-03T14:54:18.378Z,100751.31
2022-09-03T14:57:33.789Z,100535.84
2022-09-03T15:00:18.042Z,100756.47
2022-09-03T15:03:33.093Z,100757.66
2022-09-03T15:06:16.040Z,100620.75
2022-09-03T15:09:02.401Z,100640.84
2022-09-03T15:11:35.484Z,100756.28
2022-09-03T15:14:15.436Z,100763.13
2022-09-03T15:16:58.408Z,100480.63
2022-09-03T15:19:59.263Z,100698.47
2022-09-03T15:22:49.331Z,100751.31
2022-09-03T15:25:32.064Z,100561.41
2022-09-03T15:28:31.047Z,100723.00
2022-09-03T15:31:36.523Z,100619.53
2022-09-03T15:38:46.674Z,100766.88
2022-09-03T15:41:41.812Z,100724.63
2022-09-03T15:44:19.250Z,100768.03
2022-09-03T15:47:00.570Z,100764.47
2022-09-03T15:49:48.467Z,100707.91
2022-09-03T15:52:33.680Z,100766.91
2022-09-03T15:55:13.012Z,100772.91
2022-09-03T15:57:53.084Z,100737.56
2022-09-03T16:00:24.223Z,100627.47
2022-09-03T16:03:02.455Z,100769.16
2022-09-03T16:05:45.792Z,100713.78
2022-09-03T16:08:25.812Z,100760.66
2022-09-03T16:11:09.571Z,100765.94
2022-09-03T16:13:59.897Z,100739.47
2022-09-03T16:16:52.752Z,100721.13
2022-09-03T16:19:31.507Z,100771.31
2022-09-03T16:22:20.374Z,100766.81
2022-09-03T16:25:02.602Z,100626.56
2022-09-03T16:28:28.669Z,100774.03
2022-09-03T16:31:41.123Z,100762.50
2022-09-03T16:34:26.572Z,100751.72
2022-09-03T16:37:09.700Z,100686.78
2022-09-03T16:43:39.580Z,100644.16
2022-09-03T16:46:24.326Z,100701.78
2022-09-03T16:49:13.965Z,100533.09
2022-09-03T16:51:59.918Z,100727.84
2022-09-03T16:54:56.047Z,100555.06
2022-09-03T16:57:46.094Z,100720.41
2022-09-03T17:00:26.385Z,100745.31
2022-09-03T17:03:35.036Z,100697.31
2022-09-03T17:06:31.020Z,100736.25
2022-09-03T17:09:22.295Z,100760.56
2022-09-03T17:12:09.724Z,100751.50
2022-09-03T17:15:05.352Z,100759.88
2022-09-03T17:18:04.707Z,100726.19
2022-09-03T17:20:53.955Z,100717.28
2022-09-03T17:24:17.975Z,100752.78
2022-09-03T17:27:04.269Z,100759.63
2022-09-03T17:30:05.495Z,100764.34
2022-09-03T17:33:05.037Z,100707.81
2022-09-03T17:35:45.590Z,100754.63
2022-09-03T17:39:08.133Z,100757.28
2022-09-03T17:41:53.388Z,100749.13
2022-09-03T17:45:04.458Z,100755.84
2022-09-03T17:48:19.006Z,100757.06
2022-09-03T17:50:57.437Z,100761.00
2022-09-03T17:53:44.442Z,100537.56
2022-09-03T17:56:29.466Z,100757.91
2022-09-03T17:59:12.010Z,100771.25
2022-09-03T18:02:05.133Z,100756.81
2022-09-03T18:04:53.190Z,100779.31
2022-09-03T18:07:30.632Z,100773.38
2022-09-03T18:10:11.546Z,100773.69
2022-09-03T18:12:57.956Z,100780.44
2022-09-03T18:15:38.300Z,100786.31
2022-09-03T18:18:30.233Z,100789.59
2022-09-03T18:21:31.532Z,100615.03
2022-09-03T18:24:50.619Z,100785.72
2022-09-03T18:27:50.777Z,100798.13
2022-09-03T18:30:37.949Z,100803.00
2022-09-03T18:33:24.464Z,100800.28
2022-09-03T18:36:11.203Z,100811.94
2022-09-03T18:38:59.554Z,100811.22
2022-09-03T18:42:05.558Z,100812.16
2022-09-03T18:45:23.130Z,100814.97
2022-09-03T18:48:30.260Z,100808.38
2022-09-03T18:51:30.360Z,100816.25
2022-09-03T18:55:03.804Z,100757.41
2022-09-03T18:58:00.628Z,100814.66
2022-09-03T19:00:58.122Z,100747.69
2022-09-03T19:04:07.367Z,100787.31
2022-09-03T19:07:04.079Z,100825.09
2022-09-03T19:10:12.632Z,100657.03
2022-09-03T19:13:24.782Z,100813.31
2022-09-03T19:16:22.023Z,100714.97
2022-09-03T19:19:40.051Z,100829.84
2022-09-03T19:22:29.906Z,100819.75
2022-09-03T19:25:24.453Z,100822.81
2022-09-03T19:28:28.632Z,100810.03
2022-09-03T19:31:47.586Z,100829.78
2022-09-03T19:34:56.048Z,100829.28
2022-09-03T19:37:51.214Z,100825.00
2022-09-03T19:41:04.104Z,100836.16
2022-09-03T19:44:11.023Z,100832.53
2022-09-03T19:47:08.550Z,100833.84
2022-09-03T19:50:14.743Z,100819.59
2022-09-03T19:53:11.501Z,100816.56
2022-09-03T19:56:38.019Z,100742.06
2022-09-03T19:59:36.869Z,100809.50
2022-09-03T20:02:23.370Z,100840.75
2022-09-03T20:05:16.997Z,100734.03
2022-09-03T20:08:06.142Z,100834.91
2022-09-03T20:10:39.813Z,100735.25
2022-09-03T20:13:14.952Z,100562.75
2022-09-03T20:16:01.251Z,100795.88
2022-09-03T20:18:46.620Z,100845.63
2022-09-03T20:21:31.475Z,100596.34
2022-09-03T20:24:21.552Z,100573.53
2022-09-03T20:27:05.651Z,100802.72
2022-09-03T20:29:59.925Z,100801.16
2022-09-03T20:33:05.404Z,100848.50
2022-09-03T20:36:00.537Z,100811.97
2022-09-03T20:39:07.083Z,100805.63
2022-09-03T20:41:46.811Z,100585.66
2022-09-03T20:45:06.667Z,100769.13
2022-09-03T20:48:07.246Z,100852.34
2022-09-03T20:50:56.521Z,100582.47
2022-09-03T20:54:00.161Z,100750.88
2022-09-03T20:56:52.456Z,100860.81
2022-09-03T20:59:44.801Z,100570.94
2022-09-03T21:02:29.276Z,100859.22
2022-09-03T21:05:15.360Z,100857.34
2022-09-03T21:08:01.540Z,100854.50
2022-09-03T21:10:38.504Z,100862.75
2022-09-03T21:13:20.628Z,100803.22
2022-09-03T21:16:00.094Z,100732.66
2022-09-03T21:18:45.284Z,100761.16
2022-09-03T21:21:25.509Z,100777.56
2022-09-03T21:24:02.845Z,100879.16
2022-09-03T21:26:40.022Z,100871.47
2022-09-03T21:29:21.559Z,100866.69
2022-09-03T21:32:01.789Z,100875.63
2022-09-03T21:34:45.368Z,100874.50
2022-09-03T21:37:16.037Z,100757.66
2022-09-03T21:39:53.417Z,100876.25
2022-09-03T21:42:36.659Z,100827.94
2022-09-03T21:45:13.411Z,100874.38
2022-09-03T21:47:50.905Z,100840.41
2022-09-03T21:50:23.662Z,100872.91
2022-09-03T21:52:57.255Z,100870.97
2022-09-03T21:59:11.176Z,100878.44
2022-09-03T22:02:20.788Z,100875.56
2022-09-03T22:04:57.400Z,100879.22
2022-09-03T22:08:17.132Z,100615.81
2022-09-03T22:11:21.926Z,100890.88
2022-09-03T22:14:28.576Z,100893.00
2022-09-03T22:17:34.104Z,100622.03
2022-09-03T22:20:23.649Z,100897.94
2022-09-03T22:27:02.302Z,100887.19
2022-09-03T22:30:28.053Z,100887.25
2022-09-03T22:33:31.893Z,100883.22
2022-09-03T22:36:24.758Z,100890.47
2022-09-03T22:39:24.964Z,100888.88
2022-09-03T22:46:24.649Z,100750.00
2022-09-03T22:54:09.030Z,100891.25
2022-09-03T22:57:00.664Z,100890.56
2022-09-03T23:28:54.562Z,100911.50
2022-09-03T23:31:26.431Z,100914.06
2022-09-03T23:34:01.467Z,100909.66
2022-09-03T23:37:10.466Z,100912.13
2022-09-03T23:40:22.420Z,100787.75
2022-09-03T23:46:26.374Z,100924.72
2022-09-03T23:49:38.388Z,100926.38
2022-09-03T23:52:49.812Z,100673.34
2022-09-03T23:55:44.494Z,100928.16
2022-09-03T23:58:42.434Z,100937.78
